Maria Dolores — 9HBZ8 — position and weather

sailwx.info

Track history (hours):
 
Tides and Currents Weather Stations Pressure Air Temp Water Temp Dewpoint Dewpoint Depression Visibility Wind Speed Wind Dir Waves Ship Positions

Maria Dolores

Last reported at 2018-Feb-26 03:26 UTC. Time now 2018-Feb-26 03:51 UTC.
Position N 36°01' W 005°36'.

Length 68 m; draft 2.2 m.

Type: Ship. MMSI: 215883000.

Date/timePositionNaut miles runAvg speedWind from/ knotsBaromVisibWave heightAir tempDewpointWater temp
2018-Feb-26 03:26N 36°01' W 005°36'0 0.0
2018-Feb-25 22:06N 36°01' W 005°36'111.1
2018-Feb-25 22:00N 35°60' W 005°36'3 0.9
2018-Feb-25 19:12N 35°59' W 005°39'3 0.9
2018-Feb-25 15:50N 35°58' W 005°43'6 3.9
2018-Feb-25 14:16N 36°01' W 005°36'12 1.8
2018-Feb-25 07:46N 35°52' W 005°46'619.8
2018-Feb-25 07:27N 35°58' W 005°43'612.5
2018-Feb-25 06:58N 36°01' W 005°36'0 0.0
2018-Feb-25 06:30N 36°01' W 005°36'0 0.0
2018-Feb-25 05:59N 36°01' W 005°36'0 0.0
2018-Feb-24 23:04N 36°01' W 005°36'0 0.0
2018-Feb-24 22:06N 36°01' W 005°36'0 3.3
2018-Feb-24 22:00N 36°00' W 005°36'7 0.9
2018-Feb-24 14:08N 35°55' W 005°42'426.0
2018-Feb-24 14:00N 35°52' W 005°45'9 1.3
2018-Feb-24 07:14N 35°59' W 005°38'2 5.9
2018-Feb-24 06:53N 36°01' W 005°36'0 0.0
2018-Feb-24 06:25N 36°01' W 005°36'0 0.0
2018-Feb-23 22:10N 36°01' W 005°36'212.5
2018-Feb-23 22:01N 35°59' W 005°37'3 1.2
2018-Feb-23 19:18N 35°58' W 005°41'4 0.1
2018-Feb-22 07:06N 36°00' W 005°36'0 0.0
2018-Feb-21 22:19N 36°01' W 005°36'721.3
2018-Feb-21 21:59N 35°55' W 005°42'9 4.6
2018-Feb-21 20:01N 35°47' W 005°48'0 3.6
2018-Feb-21 19:57N 35°47' W 005°48'1020.3
2018-Feb-21 19:26N 35°57' W 005°43'4 0.3
2018-Feb-21 07:16N 35°58' W 005°38'3 0.3
2018-Feb-20 22:11N 36°01' W 005°36'825.1
2018-Feb-20 21:52N 35°55' W 005°43'8 9.3
2018-Feb-20 20:58N 35°47' W 005°48'0 0.0
2018-Feb-20 20:29N 35°47' W 005°48'4 9.4
2018-Feb-20 20:00N 35°52' W 005°46'1223.4
2018-Feb-20 19:30N 36°00' W 005°36'0 0.2
2018-Feb-20 18:10N 36°00' W 005°36'0 0.0
2018-Feb-19 22:20N 36°00' W 005°36'0 0.1
2018-Feb-19 18:23N 36°01' W 005°36'0 0.0
2018-Feb-19 14:21N 36°01' W 005°36'0 0.1
2018-Feb-19 10:12N 36°00' W 005°36'  
Track history (hours):
 
Tides and Currents Weather Stations Pressure Air Temp Water Temp Dewpoint Dewpoint Depression Visibility Wind Speed Wind Dir Waves Ship Positions

Maria Dolores

Last reported at 2018-Feb-26 03:26 UTC. Time now 2018-Feb-26 03:51 UTC.
Position N 36°01' W 005°36'.

Length 68 m; draft 2.2 m.

Type: Ship. MMSI: 215883000.

Date/timePositionNaut miles runAvg speedWind from/ knotsBaromVisibWave heightAir tempDewpointWater temp
2018-Feb-26 03:26N 36°01' W 005°36'0 0.0
2018-Feb-25 22:06N 36°01' W 005°36'111.1
2018-Feb-25 22:00N 35°60' W 005°36'3 0.9
2018-Feb-25 19:12N 35°59' W 005°39'3 0.9
2018-Feb-25 15:50N 35°58' W 005°43'6 3.9
2018-Feb-25 14:16N 36°01' W 005°36'12 1.8
2018-Feb-25 07:46N 35°52' W 005°46'619.8
2018-Feb-25 07:27N 35°58' W 005°43'612.5
2018-Feb-25 06:58N 36°01' W 005°36'0 0.0
2018-Feb-25 06:30N 36°01' W 005°36'0 0.0
2018-Feb-25 05:59N 36°01' W 005°36'0 0.0
2018-Feb-24 23:04N 36°01' W 005°36'0 0.0
2018-Feb-24 22:06N 36°01' W 005°36'0 3.3
2018-Feb-24 22:00N 36°00' W 005°36'7 0.9
2018-Feb-24 14:08N 35°55' W 005°42'426.0
2018-Feb-24 14:00N 35°52' W 005°45'9 1.3
2018-Feb-24 07:14N 35°59' W 005°38'2 5.9
2018-Feb-24 06:53N 36°01' W 005°36'0 0.0
2018-Feb-24 06:25N 36°01' W 005°36'0 0.0
2018-Feb-23 22:10N 36°01' W 005°36'212.5
2018-Feb-23 22:01N 35°59' W 005°37'3 1.2
2018-Feb-23 19:18N 35°58' W 005°41'4 0.1
2018-Feb-22 07:06N 36°00' W 005°36'0 0.0
2018-Feb-21 22:19N 36°01' W 005°36'721.3
2018-Feb-21 21:59N 35°55' W 005°42'9 4.6
2018-Feb-21 20:01N 35°47' W 005°48'0 3.6
2018-Feb-21 19:57N 35°47' W 005°48'1020.3
2018-Feb-21 19:26N 35°57' W 005°43'4 0.3
2018-Feb-21 07:16N 35°58' W 005°38'3 0.3
2018-Feb-20 22:11N 36°01' W 005°36'825.1
2018-Feb-20 21:52N 35°55' W 005°43'8 9.3
2018-Feb-20 20:58N 35°47' W 005°48'0 0.0
2018-Feb-20 20:29N 35°47' W 005°48'4 9.4
2018-Feb-20 20:00N 35°52' W 005°46'1223.4
2018-Feb-20 19:30N 36°00' W 005°36'0 0.2
2018-Feb-20 18:10N 36°00' W 005°36'0 0.0
2018-Feb-19 22:20N 36°00' W 005°36'0 0.1
2018-Feb-19 18:23N 36°01' W 005°36'0 0.0
2018-Feb-19 14:21N 36°01' W 005°36'0 0.1
2018-Feb-19 10:12N 36°00' W 005°36'  

Dump ship's entire track history